Terminal Aerodrome Forecast
Issued by NWS

Home | Current Version | Previous Version | Graphics & Text | Print | Product List | Glossary On
Versions: 1 2 3 4 5 6 7 8 9 10 11 12 13 14 15 16 17
874
FTUS43 KMPX 190520
TAFAXN
TAF
KAXN 190520Z 1906/2006 00000KT 6SM BR SKC
     FM191200 13008KT P6SM FEW250
     FM191700 14011G17KT P6SM SCT100 BKN250 PROB30 1918/1921 5SM
      -SHRA BKN050
     FM192300 10015G25KT P6SM VCTS BKN050CB OVC100
     FM200200 08015KT 5SM -SHRA VCTS BKN050CB OVC090=

USA.gov is the U.S. government's official web portal to all federal, state and local government web resources and services.